23:23
Airports
Links
Donate
Help keep this website running!
PayPal
Bitcoin
METAR
RJAA 292300Z VRB02KT 9999 FEW030 16/10 Q1011 BECMG 18005KT
Current Weather Conditions at RJAA
VFR 23:00:00 29-04-17
Altimeter:29.85 hg
Temp:16.0°c 61°f
Dew point:10.0°c 50°f
Wind:2 knots, 2.3 mph, 1 m/s,
Variable direction
Visibility:6.21 statute miles
3000(FEW) A few
Past METAR reports
VFR 22:30:00 29-04-17
Altimeter:29.85 hg
Temp:15.0°c 59°f
Dew point:11.0°c 52°f
Wind:3 knots, 3.5 mph, 2 m/s, from 340°
Visibility:6.21 statute miles
3000(FEW) A few
RJAA 292230Z 34003KT 280V030 9999 FEW030 15/11 Q1011 BECMG 18005KT
VFR 22:00:00 29-04-17
Altimeter:29.85 hg
Temp:14.0°c 57°f
Dew point:10.0°c 50°f
Wind:4 knots, 4.6 mph, 2 m/s, from 330°
Visibility:6.21 statute miles
3000(FEW) A few
No significant weather changes expected within 2 hours.
RJAA 292200Z 33004KT 9999 FEW030 14/10 Q1011 NOSIG RMK 1SC030 A2987
VFR 21:30:00 29-04-17
Altimeter:29.85 hg
Temp:12.0°c 54°f
Dew point:11.0°c 52°f
Wind:0 knots, 0 mph, 0 m/s,
Variable direction
Visibility:6.21 statute miles
3000(FEW) A few
No significant weather changes expected within 2 hours.
RJAA 292130Z 00000KT 9999 FEW030 12/11 Q1011 NOSIG RMK 1SC030 A2985
MVFR 21:00:00 29-04-17
Altimeter:29.82 hg
Temp:10.0°c 50°f
Dew point:9.0°c 48°f
Wind:0 knots, 0 mph, 0 m/s,
Variable direction
Visibility:4.97 statute miles
3000(FEW) A few
No significant weather changes expected within 2 hours.
RJAA 292100Z 00000KT 8000 FEW030 10/09 Q1010 NOSIG RMK 1SC030 A2984
MVFR 20:30:00 29-04-17
Altimeter:29.82 hg
Temp:7.0°c 45°f
Dew point:7.0°c 45°f
Wind:2 knots, 2.3 mph, 1 m/s, from 200°
Visibility:4.97 statute miles
3000(FEW) A few
No significant weather changes expected within 2 hours.
RJAA 292030Z 20002KT 8000 MIFG FEW030 07/07 Q1010 NOSIG RMK 1SC030 A2984
MVFR 20:23:00 29-04-17
Altimeter:29.82 hg
Temp:7.0°c 45°f
Dew point:6.0°c 43°f
Wind:2 knots, 2.3 mph, 1 m/s,
Variable direction
Visibility:4.97 statute miles
3000(FEW) A few
RJAA 292023Z VRB02KT 8000 R34L/P1800N R34R/0750VP1800U MIFG FEW030 07/06 Q1010 RMK 1SC030 A2984
TAF
TAF RJAA 292305Z 3000/0106 21012KT 9999 FEW030 BECMG 0103/0106 36020KT
Forecast at RJAA
00:00 30-04-17 to 03:00 01-05-17
Wind:12 Knots from 210°
Visibility:6.21 statute miles
3000FEW A few
BECMG 03:00 01-05-17 to 06:00 01-05-17
Wind:20 Knots from 360°
Visibility:6.21 statute miles
3000FEW A few